Time;durP1;ratioP1;P1;durP2;ratioP2;P2;SDS_P1;SDS_P2;PMS_P1;PMS_P2;Temp;Humidity;BMP_temperature;BMP_pressure;BME280_temperature;BME280_humidity;BME280_pressure;Samples;Min_cycle;Max_cycle;Signal;HPM_P1;HPM_P2
2022/01/30 00:02:26;;;;;;;17.40;9.15;;;;;;;18.75;34.35;101952.50;5054153;28;20013;-70
2022/01/30 00:04:52;;;;;;;18.67;9.60;;;;;;;18.79;34.40;101953.09;5076403;28;20025;-70
2022/01/30 00:07:18;;;;;;;14.18;8.38;;;;;;;18.81;34.40;101965.50;5058097;28;20043;-70
2022/01/30 00:09:46;;;;;;;16.38;9.15;;;;;;;18.72;34.33;101941.09;5054295;28;20089;-70
2022/01/30 00:12:15;;;;;;;15.88;8.18;;;;;;;18.56;35.19;101952.47;5057570;28;20025;-70
2022/01/30 00:14:41;;;;;;;13.85;8.45;;;;;;;18.68;34.57;101943.22;5057161;28;20010;-70
2022/01/30 00:19:45;;;;;;;18.10;8.57;;;;;;;18.92;33.80;101948.28;5055421;28;20025;-69
2022/01/30 00:22:21;;;;;;;14.25;8.77;;;;;;;18.86;34.04;101940.69;5058796;28;20021;-69
2022/01/30 00:27:18;;;;;;;20.17;9.00;;;;;;;18.66;33.68;101927.09;5058443;28;20017;-70
2022/01/30 00:29:44;;;;;;;14.48;8.10;;;;;;;18.70;34.36;101943.94;5056213;28;20017;-70
2022/01/30 00:32:11;;;;;;;13.07;8.35;;;;;;;18.53;34.85;101953.63;5059718;28;20081;-70
2022/01/30 00:34:37;;;;;;;14.15;8.75;;;;;;;18.43;35.41;101950.03;5060144;28;20021;-70
2022/01/30 00:37:03;;;;;;;17.73;8.55;;;;;;;18.28;34.50;101945.03;5058543;28;20022;-70
2022/01/30 00:39:30;;;;;;;12.35;8.05;;;;;;;17.94;35.64;101944.50;5059632;28;20013;-70
2022/01/30 00:41:56;;;;;;;15.07;8.05;;;;;;;18.08;35.47;101919.75;5059130;28;20048;-70
2022/01/30 00:44:22;;;;;;;14.70;7.55;;;;;;;18.43;35.64;101947.34;5059397;28;20016;-70
2022/01/30 00:46:48;;;;;;;12.73;7.80;;;;;;;18.31;35.78;101941.19;5059981;28;20022;-70
2022/01/30 00:49:14;;;;;;;14.38;7.65;;;;;;;18.42;34.97;101934.78;5076710;28;20086;-70
2022/01/30 00:51:40;;;;;;;11.23;7.53;;;;;;;18.33;35.38;101931.94;5059032;28;20034;-70
2022/01/30 00:54:07;;;;;;;13.15;7.75;;;;;;;18.18;35.83;101900.78;5058927;28;20013;-70
2022/01/30 00:56:33;;;;;;;10.15;6.15;;;;;;;18.30;37.01;101937.59;5060419;28;20037;-70
2022/01/30 00:58:59;;;;;;;12.52;7.18;;;;;;;18.22;37.71;101933.88;5058945;28;20077;-70
2022/01/30 01:01:26;;;;;;;11.82;6.55;;;;;;;18.14;37.94;101929.16;5075651;28;20026;-69
2022/01/30 01:03:52;;;;;;;11.75;6.97;;;;;;;18.13;37.76;101935.56;5059345;28;20072;-69
2022/01/30 01:06:18;;;;;;;9.77;6.07;;;;;;;17.99;38.82;101931.41;5056969;28;20037;-69
2022/01/30 01:08:56;;;;;;;9.65;5.80;;;;;;;17.87;39.75;101929.75;5058771;28;20022;-69
2022/01/30 01:11:53;;;;;;;9.63;6.00;;;;;;;17.73;39.96;101922.84;5057949;28;20029;-69
2022/01/30 01:25:07;;;;;;;9.27;5.95;;;;;;;16.80;41.60;101926.25;5059380;28;20020;-69
2022/01/30 01:27:34;;;;;;;13.90;7.20;;;;;;;16.70;42.07;101926.16;5058971;28;20017;-69
2022/01/30 01:30:00;;;;;;;9.85;6.05;;;;;;;16.53;42.15;101921.31;5058695;28;20018;-69
2022/01/30 01:32:27;;;;;;;12.73;7.32;;;;;;;16.38;42.81;101921.56;5057370;28;20014;-69
2022/01/30 01:34:53;;;;;;;12.52;6.97;;;;;;;16.25;42.99;101920.88;5057847;28;20171;-69
2022/01/30 01:37:19;;;;;;;10.05;6.53;;;;;;;16.15;43.12;101914.50;5058426;28;20028;-69
2022/01/30 01:39:45;;;;;;;13.95;6.97;;;;;;;16.01;43.75;101919.22;5058852;28;20015;-69
2022/01/30 01:42:14;;;;;;;8.48;5.97;;;;;;;15.91;44.27;101915.50;5058724;28;20089;-69
2022/01/30 01:44:48;;;;;;;12.27;6.78;;;;;;;15.75;44.16;101914.03;5059057;28;20033;-69
2022/01/30 01:47:17;;;;;;;10.73;6.05;;;;;;;15.51;44.70;101911.44;5058069;28;20041;-69
2022/01/30 01:49:46;;;;;;;9.48;6.22;;;;;;;15.45;44.76;101927.25;5057707;28;20013;-69
2022/01/30 01:54:50;;;;;;;12.60;6.22;;;;;;;15.12;45.48;101908.22;5029740;28;20029;-67
2022/01/30 01:57:16;;;;;;;10.60;7.20;;;;;;;14.96;45.93;101922.00;5028086;28;20095;-67
2022/01/30 01:59:43;;;;;;;12.00;6.78;;;;;;;14.85;46.24;101930.03;5032369;28;20026;-67
2022/01/30 02:02:09;;;;;;;11.65;6.75;;;;;;;14.72;46.18;101930.09;5031307;28;20364;-66
2022/01/30 02:04:37;;;;;;;12.13;6.45;;;;;;;14.66;46.56;101925.19;5030156;28;20029;-67
2022/01/30 02:09:48;;;;;;;16.50;7.80;;;;;;;14.34;47.05;101923.88;5030870;28;20043;-67
2022/01/30 02:12:19;;;;;;;14.73;7.43;;;;;;;14.25;47.26;101927.25;5031858;28;20073;-66
2022/01/30 02:15:04;;;;;;;12.60;6.68;;;;;;;14.26;47.52;101940.59;5030871;28;20049;-67
2022/01/30 02:25:49;;;;;;;11.40;7.38;;;;;;;13.71;48.49;101934.66;5056921;28;20017;-68
2022/01/30 02:28:18;;;;;;;14.77;8.30;;;;;;;13.77;48.81;101962.97;5056605;28;20025;-69
2022/01/30 02:30:56;;;;;;;10.63;6.05;;;;;;;13.74;49.45;101963.16;5052311;28;20030;-69
2022/01/30 02:33:22;;;;;;;10.82;6.45;;;;;;;13.57;48.94;101975.13;5059977;28;20014;-69
2022/01/30 02:35:49;;;;;;;13.82;6.80;;;;;;;13.38;49.38;101956.72;5060576;28;20026;-69
2022/01/30 02:38:17;;;;;;;12.02;6.07;;;;;;;13.38;49.56;101962.13;5060049;28;20013;-68
2022/01/30 02:40:46;;;;;;;12.70;6.47;;;;;;;13.37;49.39;101971.97;5061718;28;20022;-68
2022/01/30 02:43:14;;;;;;;17.30;6.82;;;;;;;13.30;49.65;101978.72;5062221;28;20039;-68
2022/01/30 02:45:48;;;;;;;10.80;7.18;;;;;;;13.09;50.17;101959.56;5060264;28;20020;-68
2022/01/30 02:48:18;;;;;;;13.45;9.73;;;;;;;13.04;50.10;101959.88;5059262;28;20023;-68
2022/01/30 02:51:07;;;;;;;18.05;14.43;;;;;;;12.98;50.36;101954.91;5060661;28;20045;-68
2022/01/30 02:53:38;;;;;;;24.92;18.80;;;;;;;13.04;50.48;101973.28;5058511;28;20094;-67
2022/01/30 02:56:05;;;;;;;18.80;15.13;;;;;;;12.93;50.65;101971.31;5056270;28;20013;-67
2022/01/30 02:58:31;;;;;;;12.60;9.70;;;;;;;12.88;51.16;101983.34;5059330;28;20033;-67
2022/01/30 03:00:57;;;;;;;10.68;7.40;;;;;;;12.79;50.56;101988.38;5058979;28;20044;-67
2022/01/30 03:03:23;;;;;;;10.52;6.68;;;;;;;12.85;50.61;101978.16;5057999;28;20018;-68
2022/01/30 03:05:50;;;;;;;10.30;6.25;;;;;;;12.74;50.86;101987.81;5060602;28;20061;-68
2022/01/30 03:08:16;;;;;;;8.60;6.10;;;;;;;12.70;50.97;101971.97;5059594;28;20040;-68
2022/01/30 03:10:42;;;;;;;8.57;5.47;;;;;;;12.65;50.86;101970.47;5056137;28;20084;-68
2022/01/30 03:13:08;;;;;;;9.18;6.18;;;;;;;12.58;51.06;101966.47;5059221;28;20089;-68
2022/01/30 03:15:35;;;;;;;8.95;5.43;;;;;;;12.63;50.62;101987.66;5059539;28;20036;-68
2022/01/30 03:18:01;;;;;;;8.23;5.25;;;;;;;12.44;51.06;101956.63;5059726;28;20013;-68
2022/01/30 03:20:27;;;;;;;7.28;5.18;;;;;;;12.56;51.25;101991.69;5058945;28;20032;-68
2022/01/30 03:22:54;;;;;;;7.35;4.90;;;;;;;12.42;51.48;101977.38;5057356;28;20017;-68
2022/01/30 03:25:20;;;;;;;11.27;5.28;;;;;;;12.39;52.01;101988.28;5075410;28;20017;-68
2022/01/30 03:27:51;;;;;;;6.53;4.50;;;;;;;12.42;52.61;101993.47;5057802;28;20013;-68
2022/01/30 03:30:25;;;;;;;8.75;5.00;;;;;;;12.37;52.58;101990.19;5056663;28;20049;-68
2022/01/30 03:32:52;;;;;;;12.10;4.57;;;;;;;12.34;53.15;102002.00;5057936;28;20025;-68
2022/01/30 03:35:19;;;;;;;9.38;4.80;;;;;;;12.34;52.90;101982.34;5056659;28;20084;-68
2022/01/30 03:37:45;;;;;;;8.32;4.55;;;;;;;12.31;53.54;101995.94;5053541;28;20021;-68
2022/01/30 03:40:12;;;;;;;8.13;4.55;;;;;;;12.38;53.56;101994.59;5059256;28;20040;-68
2022/01/30 03:42:39;;;;;;;10.32;4.88;;;;;;;12.38;53.87;102002.66;5056991;28;20021;-68
2022/01/30 03:45:06;;;;;;;8.15;4.57;;;;;;;12.24;54.02;101994.66;5057732;28;20245;-68
2022/01/30 03:47:32;;;;;;;6.85;4.43;;;;;;;12.28;54.07;102001.53;5058370;28;20069;-68
2022/01/30 03:49:58;;;;;;;6.60;3.72;;;;;;;12.19;54.46;101997.59;5057787;28;20032;-68
2022/01/30 03:52:24;;;;;;;7.63;4.07;;;;;;;12.23;54.66;102004.50;5056575;28;20016;-67
2022/01/30 03:54:50;;;;;;;6.65;4.05;;;;;;;12.11;54.47;102007.94;5058878;28;20005;-68
2022/01/30 03:57:16;;;;;;;6.90;4.25;;;;;;;12.10;55.19;102001.72;5058684;28;20041;-68
2022/01/30 03:59:42;;;;;;;6.28;4.30;;;;;;;12.18;55.15;101999.44;5058893;28;20049;-68
2022/01/30 04:02:09;;;;;;;6.55;4.25;;;;;;;12.12;55.50;102005.19;5074373;28;20056;-68
2022/01/30 04:04:35;;;;;;;9.00;3.90;;;;;;;12.07;55.39;102004.63;5057741;28;20030;-68
2022/01/30 04:07:01;;;;;;;8.55;4.53;;;;;;;12.14;55.60;102022.03;5059249;28;20025;-68
2022/01/30 04:09:28;;;;;;;5.97;3.95;;;;;;;12.11;56.31;102024.94;5058524;28;20037;-68
2022/01/30 04:11:55;;;;;;;5.45;4.07;;;;;;;12.02;56.39;102026.38;5074086;28;20075;-68
2022/01/30 04:14:21;;;;;;;5.95;3.75;;;;;;;12.05;56.13;102032.47;5058316;28;20031;-68
2022/01/30 04:16:48;;;;;;;7.90;3.58;;;;;;;12.04;56.71;102025.41;5074208;28;20030;-68
2022/01/30 04:19:14;;;;;;;5.78;3.80;;;;;;;12.11;56.67;102049.06;5058577;28;20025;-68
2022/01/30 04:21:41;;;;;;;8.27;3.80;;;;;;;12.01;56.72;102043.41;5056676;28;20038;-68
2022/01/30 04:24:07;;;;;;;7.15;3.35;;;;;;;12.02;56.03;102045.16;5035156;28;20026;-66
2022/01/30 04:26:33;;;;;;;4.53;3.50;;;;;;;11.90;56.53;102034.28;5034597;28;20021;-65
2022/01/30 04:29:00;;;;;;;5.53;3.47;;;;;;;12.00;56.45;102055.09;5032611;28;20479;-66
2022/01/30 04:31:26;;;;;;;5.90;3.50;;;;;;;11.89;55.78;102037.91;5033952;28;20048;-66
2022/01/30 04:33:52;;;;;;;6.88;3.30;;;;;;;11.89;56.79;102054.00;5033175;28;20470;-66
2022/01/30 04:36:25;;;;;;;8.18;3.63;;;;;;;11.89;56.39;102049.50;5033344;28;20033;-66
2022/01/30 04:57:52;;;;;;;11.35;4.53;;;;;;;11.41;58.32;102055.06;5056131;28;20097;-69
2022/01/30 05:00:48;;;;;;;5.85;3.90;;;;;;;11.48;57.69;102058.22;5057165;28;20028;-69
2022/01/30 05:06:16;;;;;;;8.90;4.05;;;;;;;11.42;57.36;102083.59;5046815;28;20032;-69
2022/01/30 05:08:43;;;;;;;5.25;3.63;;;;;;;11.36;57.84;102074.06;5054786;28;20033;-69
2022/01/30 05:11:10;;;;;;;7.15;4.30;;;;;;;11.39;57.99;102073.03;5054847;28;20029;-69
2022/01/30 05:13:42;;;;;;;8.13;4.68;;;;;;;11.32;57.44;102067.19;5056377;28;20018;-69
2022/01/30 05:16:09;;;;;;;8.38;3.40;;;;;;;11.31;57.89;102083.34;5056206;28;20033;-69
2022/01/30 05:18:36;;;;;;;9.00;4.10;;;;;;;11.35;57.72;102087.56;5057003;28;20456;-68
2022/01/30 05:21:03;;;;;;;5.47;3.85;;;;;;;11.26;57.70;102072.03;5056427;28;20100;-68
2022/01/30 05:23:29;;;;;;;8.23;3.72;;;;;;;11.28;57.43;102086.19;5040389;28;20495;-67
2022/01/30 05:25:56;;;;;;;6.28;4.00;;;;;;;11.28;57.68;102095.13;5032026;28;20108;-67
2022/01/30 05:28:23;;;;;;;6.28;3.95;;;;;;;11.23;57.25;102090.97;5032402;28;20037;-67
2022/01/30 05:30:50;;;;;;;6.40;4.15;;;;;;;11.16;57.40;102094.00;5031673;28;20532;-67
2022/01/30 05:33:16;;;;;;;7.28;3.90;;;;;;;10.92;57.32;102071.28;5033196;28;20029;-66
2022/01/30 05:35:43;;;;;;;5.43;3.47;;;;;;;11.10;57.34;102097.00;5032243;28;20040;-67
2022/01/30 05:38:09;;;;;;;6.53;3.88;;;;;;;11.01;57.50;102090.38;5029976;28;21027;-67
2022/01/30 05:40:36;;;;;;;8.02;3.88;;;;;;;11.14;57.14;102103.06;5031917;28;20032;-67
2022/01/30 05:43:04;;;;;;;7.03;4.18;;;;;;;11.06;57.21;102100.84;5029917;28;20339;-67
2022/01/30 05:45:47;;;;;;;9.43;4.72;;;;;;;10.93;57.84;102084.59;5031889;28;20468;-66
2022/01/30 05:48:16;;;;;;;6.50;3.65;;;;;;;10.98;57.15;102103.06;5029059;28;20076;-67
2022/01/30 05:50:43;;;;;;;8.55;4.50;;;;;;;10.94;57.05;102098.84;5031742;28;20021;-67
2022/01/30 05:53:10;;;;;;;6.32;3.42;;;;;;;10.86;57.02;102083.22;5032297;28;20036;-67
2022/01/30 05:55:37;;;;;;;7.80;3.85;;;;;;;10.86;56.97;102083.22;5031645;28;20471;-67
2022/01/30 05:58:03;;;;;;;8.85;4.32;;;;;;;10.83;57.42;102084.25;5029642;28;20029;-67
2022/01/30 06:00:29;;;;;;;6.68;4.20;;;;;;;10.72;57.19;102073.28;5031694;28;20060;-67
2022/01/30 06:02:55;;;;;;;7.53;4.40;;;;;;;10.75;57.14;102078.44;5047828;28;20029;-68
2022/01/30 06:05:23;;;;;;;6.32;4.20;;;;;;;10.73;57.48;102080.38;5031876;28;20028;-67
2022/01/30 06:07:55;;;;;;;7.75;3.90;;;;;;;10.61;57.33;102065.00;5030696;28;20559;-67
2022/01/30 06:10:24;;;;;;;5.70;3.33;;;;;;;10.65;57.19;102070.06;5031041;28;20044;-67
2022/01/30 06:12:50;;;;;;;7.82;3.65;;;;;;;10.59;57.09;102069.56;5032007;28;20428;-67
2022/01/30 06:15:17;;;;;;;6.28;3.38;;;;;;;10.61;57.33;102087.25;5029265;28;20380;-66
2022/01/30 06:17:43;;;;;;;6.40;3.55;;;;;;;10.57;57.69;102087.53;5030655;28;20079;-67
2022/01/30 06:20:11;;;;;;;6.70;3.97;;;;;;;10.49;57.47;102072.75;5032496;28;20108;-67
2022/01/30 06:22:38;;;;;;;7.80;4.07;;;;;;;10.52;56.97;102082.41;5038299;28;20022;-68
2022/01/30 06:25:05;;;;;;;5.45;3.80;;;;;;;10.42;56.78;102082.06;5055921;28;20006;-68
2022/01/30 06:27:31;;;;;;;6.90;3.83;;;;;;;10.35;57.43;102075.25;5051449;28;20026;-68
2022/01/30 06:29:58;;;;;;;4.57;2.90;;;;;;;10.42;57.15;102086.56;5055241;28;20017;-68
2022/01/30 06:32:24;;;;;;;6.45;3.65;;;;;;;10.31;57.18;102076.38;5055521;28;20060;-68
2022/01/30 06:34:50;;;;;;;7.65;4.10;;;;;;;10.22;57.76;102083.94;5055067;28;20043;-68
2022/01/30 06:37:16;;;;;;;6.57;4.25;;;;;;;10.23;56.82;102085.69;5054856;28;20025;-68
2022/01/30 06:39:43;;;;;;;4.90;3.55;;;;;;;10.21;57.17;102074.22;5054587;28;20006;-68
2022/01/30 06:42:09;;;;;;;5.28;3.53;;;;;;;10.12;57.24;102076.53;5055486;28;20037;-68
2022/01/30 06:44:35;;;;;;;6.72;3.80;;;;;;;10.12;57.43;102090.75;5054095;28;20014;-68
2022/01/30 06:47:02;;;;;;;7.65;4.22;;;;;;;10.14;56.52;102083.50;5052996;28;20116;-68
2022/01/30 06:49:28;;;;;;;6.22;3.78;;;;;;;10.17;56.66;102093.19;5051500;28;20033;-69
2022/01/30 06:51:54;;;;;;;5.30;3.65;;;;;;;10.12;56.88;102100.59;5050592;28;20482;-70
2022/01/30 06:54:20;;;;;;;7.07;3.90;;;;;;;9.99;57.22;102093.22;5053583;28;20032;-68
2022/01/30 06:56:46;;;;;;;6.38;3.55;;;;;;;9.96;56.96;102100.53;5070350;28;20049;-68
2022/01/30 06:59:12;;;;;;;4.13;3.50;;;;;;;9.89;57.47;102106.19;5034241;28;20432;-68
2022/01/30 07:01:38;;;;;;;6.00;3.72;;;;;;;9.79;57.61;102078.22;5032659;28;20076;-68
2022/01/30 07:04:05;;;;;;;6.57;3.55;;;;;;;9.82;56.95;102078.03;5030059;28;20121;-68
2022/01/30 07:06:31;;;;;;;6.40;3.75;;;;;;;9.92;56.97;102083.78;5029824;28;20157;-67
2022/01/30 07:08:57;;;;;;;4.35;3.40;;;;;;;9.83;56.98;102081.59;5032073;28;20345;-68
2022/01/30 07:11:23;;;;;;;5.60;3.60;;;;;;;9.88;56.30;102072.38;5030338;28;20032;-67
2022/01/30 07:13:49;;;;;;;5.75;3.50;;;;;;;9.83;55.83;102069.06;5031234;28;20062;-68
2022/01/30 07:16:15;;;;;;;5.10;3.55;;;;;;;9.88;55.68;102071.53;5032161;28;20044;-67
2022/01/30 07:18:42;;;;;;;5.22;3.28;;;;;;;9.87;55.79;102075.97;5035224;28;20160;-67
2022/01/30 07:21:09;;;;;;;5.65;3.20;;;;;;;9.84;55.73;102065.47;5035088;28;20036;-68
2022/01/30 07:23:40;;;;;;;6.55;3.63;;;;;;;9.68;55.72;102053.84;5036267;28;20030;-68
2022/01/30 07:26:06;;;;;;;4.35;3.05;;;;;;;9.84;55.01;102078.84;5035549;28;20021;-68
2022/01/30 07:28:33;;;;;;;4.50;3.55;;;;;;;9.65;55.34;102054.00;5035366;28;20029;-68
2022/01/30 07:30:59;;;;;;;7.07;3.28;;;;;;;9.83;55.35;102065.56;5035243;28;20025;-68
2022/01/30 07:33:25;;;;;;;3.50;2.95;;;;;;;9.57;55.31;102063.28;5049759;28;20470;-68
2022/01/30 07:35:53;;;;;;;6.90;3.03;;;;;;;9.74;54.92;102067.75;5035951;28;20041;-68
2022/01/30 07:38:21;;;;;;;5.68;3.25;;;;;;;9.74;55.35;102066.91;5033563;28;20033;-68
2022/01/30 07:40:48;;;;;;;5.88;3.15;;;;;;;9.65;54.62;102045.97;5035804;28;20025;-68
2022/01/30 07:43:14;;;;;;;4.10;2.97;;;;;;;9.61;54.45;102045.25;5034607;28;20125;-68
2022/01/30 07:45:40;;;;;;;4.43;3.05;;;;;;;9.54;55.05;102050.06;5034912;28;20025;-68
2022/01/30 07:48:06;;;;;;;6.43;3.20;;;;;;;9.49;54.40;102052.13;5035887;28;20029;-68
2022/01/30 07:50:32;;;;;;;4.97;3.17;;;;;;;9.57;54.68;102052.59;5039105;28;20025;-74
2022/01/30 07:52:59;;;;;;;3.95;3.25;;;;;;;9.62;54.27;102067.53;5041403;28;20089;-71
2022/01/30 07:55:25;;;;;;;5.13;2.58;;;;;;;9.47;53.92;102045.97;5035543;28;20056;-67
2022/01/30 07:57:51;;;;;;;4.10;2.63;;;;;;;9.47;53.79;102050.47;5035716;28;20403;-67
2022/01/30 08:00:17;;;;;;;5.13;2.40;;;;;;;9.44;54.23;102056.84;5031411;28;20018;-68
2022/01/30 08:02:44;;;;;;;4.50;2.22;;;;;;;9.29;53.71;102060.28;5034684;28;20036;-67
2022/01/30 08:05:10;;;;;;;6.28;2.63;;;;;;;9.39;53.28;102064.22;5035453;28;20459;-67
2022/01/30 08:07:36;;;;;;;5.20;2.95;;;;;;;9.41;53.34;102071.22;5035616;28;20036;-68
2022/01/30 08:10:03;;;;;;;5.63;2.65;;;;;;;9.32;53.76;102057.44;5033980;28;20045;-68
2022/01/30 08:12:29;;;;;;;4.65;2.90;;;;;;;9.35;53.26;102073.31;5035562;28;20036;-67
2022/01/30 08:14:55;;;;;;;3.17;2.13;;;;;;;9.35;52.68;102067.97;5035164;28;20025;-67
2022/01/30 08:17:23;;;;;;;3.58;2.60;;;;;;;9.16;52.36;102047.53;5034416;28;20021;-68
2022/01/30 08:19:51;;;;;;;3.30;2.42;;;;;;;9.22;53.07;102071.28;5033919;28;20087;-67
2022/01/30 08:22:17;;;;;;;5.93;2.92;;;;;;;9.18;52.87;102064.34;5034112;28;20224;-67
2022/01/30 08:24:43;;;;;;;3.78;2.38;;;;;;;9.18;53.12;102071.50;5034872;28;20029;-67
2022/01/30 08:27:10;;;;;;;3.17;2.42;;;;;;;9.20;53.46;102074.97;5035320;28;20022;-67
2022/01/30 08:29:37;;;;;;;4.53;2.47;;;;;;;9.19;53.02;102062.53;5033288;28;20030;-67
2022/01/30 08:32:04;;;;;;;2.95;2.22;;;;;;;9.10;53.48;102069.22;5032243;28;20051;-67
2022/01/30 08:34:30;;;;;;;2.80;2.08;;;;;;;9.00;53.73;102067.94;5035297;28;20095;-67
2022/01/30 08:36:57;;;;;;;4.03;2.25;;;;;;;9.07;53.37;102083.56;5034752;28;20026;-67
2022/01/30 08:39:23;;;;;;;3.90;2.28;;;;;;;8.90;53.71;102072.84;5034744;28;20041;-67
2022/01/30 08:41:49;;;;;;;4.70;2.17;;;;;;;8.97;53.53;102086.75;5034142;28;20045;-67
2022/01/30 08:44:15;;;;;;;2.75;2.05;;;;;;;9.00;54.02;102087.47;5034331;28;20400;-68
2022/01/30 08:46:41;;;;;;;2.67;1.90;;;;;;;8.92;53.34;102087.84;5034183;28;20371;-67
2022/01/30 08:49:08;;;;;;;6.15;2.45;;;;;;;8.83;53.22;102076.75;5048331;28;20025;-67
2022/01/30 08:51:34;;;;;;;3.53;2.30;;;;;;;8.74;53.25;102062.03;5033636;28;20029;-67
2022/01/30 08:54:00;;;;;;;2.88;2.05;;;;;;;8.73;52.90;102071.84;5033576;28;20063;-67
2022/01/30 08:56:28;;;;;;;4.75;1.90;;;;;;;8.72;52.34;102074.56;5033498;28;20067;-68
2022/01/30 08:58:55;;;;;;;3.70;2.03;;;;;;;8.68;52.57;102062.31;5034139;28;20040;-67
2022/01/30 09:01:21;;;;;;;2.72;2.08;;;;;;;8.70;52.62;102071.97;5034296;28;20107;-67
2022/01/30 09:03:47;;;;;;;5.20;2.00;;;;;;;8.78;52.63;102074.28;5034431;28;20029;-67
2022/01/30 09:06:13;;;;;;;4.22;1.90;;;;;;;8.75;52.81;102069.09;5033982;28;20521;-68
2022/01/30 09:08:39;;;;;;;2.90;1.67;;;;;;;8.72;52.72;102053.22;5034569;28;20151;-67
2022/01/30 09:11:06;;;;;;;4.65;2.42;;;;;;;8.74;52.88;102067.38;5034860;28;20360;-68
2022/01/30 09:13:33;;;;;;;3.60;2.13;;;;;;;8.70;53.65;102053.31;5034936;28;20414;-67
2022/01/30 09:15:59;;;;;;;3.10;1.92;;;;;;;8.55;53.76;102054.91;5033669;28;20033;-68
2022/01/30 09:18:26;;;;;;;4.50;2.13;;;;;;;8.57;53.25;102053.03;5034966;28;20125;-67
2022/01/30 09:20:54;;;;;;;3.75;2.13;;;;;;;8.56;52.90;102040.63;5033518;28;20104;-67
2022/01/30 09:23:20;;;;;;;2.97;2.10;;;;;;;8.60;52.50;102044.88;5032400;28;20132;-68
2022/01/30 09:25:48;;;;;;;4.00;2.05;;;;;;;8.56;52.49;102048.63;5033915;28;20025;-68
2022/01/30 09:28:14;;;;;;;3.30;2.08;;;;;;;8.59;52.81;102056.47;5033961;28;20044;-68
2022/01/30 09:30:40;;;;;;;2.85;2.10;;;;;;;8.49;53.03;102041.00;5033437;28;20037;-68
2022/01/30 09:33:07;;;;;;;3.47;2.35;;;;;;;8.43;52.86;102034.97;5033211;28;20037;-68
2022/01/30 09:35:33;;;;;;;3.38;1.88;;;;;;;8.41;53.09;102054.66;5032925;28;20156;-68
2022/01/30 09:37:59;;;;;;;2.85;2.40;;;;;;;8.27;53.30;102045.47;5032640;28;20128;-68
2022/01/30 09:40:25;;;;;;;2.40;1.88;;;;;;;8.41;52.92;102060.00;5031693;28;20452;-68
2022/01/30 09:42:52;;;;;;;3.88;2.17;;;;;;;8.25;53.02;102049.16;5032432;28;20037;-68
2022/01/30 09:45:22;;;;;;;3.10;2.15;;;;;;;8.19;53.02;102065.44;5032763;28;20452;-68
2022/01/30 09:47:49;;;;;;;2.53;1.70;;;;;;;8.26;52.76;102077.56;5032639;28;20067;-68
2022/01/30 09:50:17;;;;;;;3.00;1.90;;;;;;;8.24;52.76;102080.28;5033192;28;20033;-68
2022/01/30 09:52:45;;;;;;;3.10;2.00;;;;;;;8.23;52.57;102086.56;5030845;28;20094;-67
2022/01/30 09:55:11;;;;;;;4.82;2.10;;;;;;;8.18;52.73;102085.03;5033458;28;20021;-67
2022/01/30 09:57:41;;;;;;;3.35;1.77;;;;;;;8.15;52.96;102086.03;5031202;28;20072;-67
2022/01/30 10:00:09;;;;;;;3.45;2.00;;;;;;;7.92;53.54;102058.59;5029799;28;20444;-67
2022/01/30 10:02:35;;;;;;;2.63;1.60;;;;;;;7.94;53.44;102055.84;5030938;28;20021;-67
2022/01/30 10:05:01;;;;;;;3.35;1.55;;;;;;;7.97;52.96;102056.59;5032317;28;20027;-67
2022/01/30 10:07:46;;;;;;;2.67;1.60;;;;;;;7.90;53.00;102072.94;5032436;28;20025;-67
2022/01/30 10:10:17;;;;;;;2.30;1.70;;;;;;;7.91;53.35;102077.34;5032398;28;20041;-67
2022/01/30 10:13:08;;;;;;;2.13;1.52;;;;;;;7.80;53.47;102085.78;5031196;28;20056;-67
2022/01/30 10:15:56;;;;;;;3.90;1.92;;;;;;;7.69;53.27;102091.56;5032536;28;20160;-67
2022/01/30 10:18:24;;;;;;;2.72;1.65;;;;;;;7.66;53.42;102077.53;5033720;28;20423;-67
2022/01/30 10:20:50;;;;;;;2.50;1.40;;;;;;;7.77;53.80;102088.59;5032160;28;20017;-67
2022/01/30 10:23:17;;;;;;;1.83;1.50;;;;;;;7.78;53.68;102093.84;5033372;28;20399;-67
2022/01/30 10:25:53;;;;;;;3.53;1.73;;;;;;;7.70;54.01;102089.78;5048574;28;20041;-67
2022/01/30 10:28:28;;;;;;;4.80;1.77;;;;;;;7.70;53.47;102087.97;5032808;28;20034;-67
2022/01/30 10:31:00;;;;;;;3.05;1.55;;;;;;;7.69;54.08;102107.56;5031815;28;20099;-67
2022/01/30 10:33:49;;;;;;;2.75;1.70;;;;;;;7.59;53.40;102104.44;5032476;28;20371;-67
2022/01/30 10:36:19;;;;;;;2.92;1.73;;;;;;;7.61;54.48;102097.22;5032974;28;20363;-67
2022/01/30 10:38:51;;;;;;;1.95;1.50;;;;;;;7.68;53.95;102096.97;5031066;28;20049;-67
2022/01/30 10:41:21;;;;;;;2.92;2.13;;;;;;;7.58;54.79;102094.72;5031445;28;20196;-67
2022/01/30 10:44:01;;;;;;;5.97;2.10;;;;;;;7.75;54.06;102098.44;5031987;28;20133;-67
2022/01/30 10:46:29;;;;;;;3.53;2.10;;;;;;;7.59;54.38;102088.47;5032746;28;20021;-68
2022/01/30 10:48:58;;;;;;;4.03;1.42;;;;;;;7.66;54.67;102098.84;5031424;28;20486;-68
2022/01/30 10:51:26;;;;;;;2.88;1.83;;;;;;;7.64;54.95;102082.91;5033811;28;20059;-67
2022/01/30 10:53:53;;;;;;;4.38;1.80;;;;;;;7.58;54.76;102100.03;5036551;28;20451;-67
2022/01/30 10:56:24;;;;;;;5.90;1.67;;;;;;;7.70;54.73;102095.97;5036818;28;20037;-67
2022/01/30 10:59:11;;;;;;;4.53;1.45;;;;;;;7.56;55.11;102088.56;5035816;28;20052;-67
2022/01/30 11:01:46;;;;;;;6.10;2.40;;;;;;;7.53;55.46;102082.50;5036669;28;20025;-68
2022/01/30 11:04:22;;;;;;;4.80;2.10;;;;;;;7.51;55.16;102077.25;5036335;28;20045;-67
2022/01/30 11:06:49;;;;;;;3.65;1.88;;;;;;;7.61;55.75;102078.56;5036464;28;20029;-67
2022/01/30 11:09:20;;;;;;;6.03;2.22;;;;;;;7.52;55.70;102073.66;5036603;28;20079;-67
2022/01/30 11:11:53;;;;;;;4.07;2.35;;;;;;;7.68;55.46;102080.97;5036442;28;20033;-67
2022/01/30 11:14:23;;;;;;;4.28;2.50;;;;;;;7.68;56.40;102075.66;5035444;28;20037;-67
2022/01/30 11:17:02;;;;;;;4.80;2.13;;;;;;;7.61;56.52;102075.91;5035635;28;20037;-67
2022/01/30 11:19:34;;;;;;;5.20;2.50;;;;;;;7.63;56.90;102079.38;5036129;28;20035;-67
2022/01/30 11:22:12;;;;;;;4.95;2.42;;;;;;;7.64;56.31;102081.13;5040968;28;20036;-70
2022/01/30 11:25:02;;;;;;;3.17;2.03;;;;;;;7.66;56.43;102088.19;5042705;28;20357;-74
2022/01/30 11:27:28;;;;;;;3.65;2.13;;;;;;;7.50;56.50;102082.63;5040873;28;20029;-68
2022/01/30 11:29:55;;;;;;;4.38;2.20;;;;;;;7.63;56.68;102095.38;5057524;28;20021;-72
2022/01/30 11:32:23;;;;;;;4.40;2.33;;;;;;;7.66;56.23;102090.84;5041550;28;20029;-70
2022/01/30 11:34:49;;;;;;;4.65;2.53;;;;;;;7.54;56.94;102069.13;5042332;28;20025;-73
2022/01/30 11:37:17;;;;;;;3.60;2.58;;;;;;;7.68;56.65;102091.63;5040129;28;20038;-72
2022/01/30 11:39:52;;;;;;;5.80;2.83;;;;;;;7.69;56.88;102094.22;5048470;28;20022;-69
2022/01/30 11:42:23;;;;;;;3.90;2.40;;;;;;;7.57;56.56;102074.31;5043600;28;20036;-69
2022/01/30 11:45:10;;;;;;;3.92;2.15;;;;;;;7.61;57.40;102091.91;5034830;28;20037;-68
2022/01/30 11:47:51;;;;;;;9.27;2.83;;;;;;;7.53;57.27;102088.72;5034809;28;20041;-68
2022/01/30 11:50:28;;;;;;;4.35;2.60;;;;;;;7.48;58.39;102080.06;5035516;28;20029;-68
2022/01/30 11:53:04;;;;;;;6.72;3.10;;;;;;;7.61;58.14;102093.72;5036418;28;20131;-68
2022/01/30 11:55:49;;;;;;;5.50;2.60;;;;;;;7.61;57.95;102101.69;5036335;28;20029;-68
2022/01/30 11:58:33;;;;;;;4.22;2.55;;;;;;;7.61;58.20;102112.34;5036384;28;20460;-68
2022/01/30 12:01:23;;;;;;;6.22;3.00;;;;;;;7.55;58.74;102116.13;5035920;28;20034;-68
2022/01/30 12:04:09;;;;;;;4.40;2.75;;;;;;;7.59;58.40;102103.56;5030921;28;20052;-67
2022/01/30 12:06:41;;;;;;;5.97;3.67;;;;;;;7.60;58.16;102098.19;5036225;28;20404;-67
2022/01/30 12:09:16;;;;;;;5.35;3.13;;;;;;;7.60;58.46;102108.84;5035252;28;20073;-68
2022/01/30 12:11:47;;;;;;;7.82;3.45;;;;;;;7.57;58.63;102110.75;5034654;28;20029;-69
2022/01/30 12:14:19;;;;;;;4.13;3.10;;;;;;;7.60;58.65;102099.97;5036394;28;20021;-67
2022/01/30 12:16:56;;;;;;;6.50;3.20;;;;;;;7.50;58.69;102094.16;5036714;28;20455;-67
2022/01/30 12:19:31;;;;;;;6.03;3.55;;;;;;;7.56;58.91;102103.69;5035496;28;20048;-68
2022/01/30 12:22:19;;;;;;;7.13;3.53;;;;;;;7.39;59.57;102107.03;5036192;28;20355;-67
2022/01/30 12:24:47;;;;;;;5.43;3.38;;;;;;;7.44;60.88;102118.38;5033930;28;20037;-67
2022/01/30 12:27:13;;;;;;;4.20;3.20;;;;;;;7.50;60.62;102127.91;5036046;28;20446;-67